sensor_id;sensor_type;location;lat;lon;timestamp;P1;durP1;ratioP1;P2;durP2;ratioP2
7076;SDS011;3579;48.956;9.154;2023-07-16T00:01:13;1.90;;;1.80;;
7076;SDS011;3579;48.956;9.154;2023-07-16T00:03:40;1.70;;;1.60;;
7076;SDS011;3579;48.956;9.154;2023-07-16T00:06:06;1.70;;;1.60;;
7076;SDS011;3579;48.956;9.154;2023-07-16T00:08:33;1.80;;;1.70;;
7076;SDS011;3579;48.956;9.154;2023-07-16T00:10:59;1.57;;;1.47;;
7076;SDS011;3579;48.956;9.154;2023-07-16T00:13:28;2.37;;;1.80;;
7076;SDS011;3579;48.956;9.154;2023-07-16T00:15:54;1.70;;;1.60;;
7076;SDS011;3579;48.956;9.154;2023-07-16T00:18:21;1.67;;;1.57;;
7076;SDS011;3579;48.956;9.154;2023-07-16T00:20:47;1.60;;;1.50;;
7076;SDS011;3579;48.956;9.154;2023-07-16T00:23:14;1.67;;;1.57;;
7076;SDS011;3579;48.956;9.154;2023-07-16T00:25:40;1.90;;;1.70;;
7076;SDS011;3579;48.956;9.154;2023-07-16T00:28:07;1.77;;;1.60;;
7076;SDS011;3579;48.956;9.154;2023-07-16T00:30:34;1.70;;;1.60;;
7076;SDS011;3579;48.956;9.154;2023-07-16T00:33:00;1.80;;;1.70;;
7076;SDS011;3579;48.956;9.154;2023-07-16T00:35:30;1.83;;;1.60;;
7076;SDS011;3579;48.956;9.154;2023-07-16T00:37:57;2.03;;;1.83;;
7076;SDS011;3579;48.956;9.154;2023-07-16T00:40:23;1.77;;;1.67;;
7076;SDS011;3579;48.956;9.154;2023-07-16T00:42:51;2.40;;;1.87;;
7076;SDS011;3579;48.956;9.154;2023-07-16T00:45:18;1.90;;;1.63;;
7076;SDS011;3579;48.956;9.154;2023-07-16T00:47:44;1.90;;;1.57;;
7076;SDS011;3579;48.956;9.154;2023-07-16T00:50:11;1.80;;;1.70;;
7076;SDS011;3579;48.956;9.154;2023-07-16T00:52:38;1.60;;;1.50;;
7076;SDS011;3579;48.956;9.154;2023-07-16T00:55:06;1.50;;;1.40;;
7076;SDS011;3579;48.956;9.154;2023-07-16T00:57:33;2.03;;;1.70;;
7076;SDS011;3579;48.956;9.154;2023-07-16T01:00:00;1.70;;;1.60;;
7076;SDS011;3579;48.956;9.154;2023-07-16T01:02:28;1.70;;;1.60;;
7076;SDS011;3579;48.956;9.154;2023-07-16T01:04:54;1.67;;;1.57;;
7076;SDS011;3579;48.956;9.154;2023-07-16T01:07:21;1.90;;;1.70;;
7076;SDS011;3579;48.956;9.154;2023-07-16T01:09:51;1.73;;;1.63;;
7076;SDS011;3579;48.956;9.154;2023-07-16T01:12:22;1.60;;;1.50;;
7076;SDS011;3579;48.956;9.154;2023-07-16T01:14:50;1.73;;;1.63;;
7076;SDS011;3579;48.956;9.154;2023-07-16T01:17:18;1.60;;;1.50;;
7076;SDS011;3579;48.956;9.154;2023-07-16T01:19:47;1.60;;;1.50;;
7076;SDS011;3579;48.956;9.154;2023-07-16T01:30:47;1.60;;;1.50;;
7076;SDS011;3579;48.956;9.154;2023-07-16T01:33:15;1.63;;;1.53;;
7076;SDS011;3579;48.956;9.154;2023-07-16T01:35:44;1.70;;;1.60;;
7076;SDS011;3579;48.956;9.154;2023-07-16T01:38:13;1.80;;;1.70;;
7076;SDS011;3579;48.956;9.154;2023-07-16T01:40:42;1.83;;;1.70;;
7076;SDS011;3579;48.956;9.154;2023-07-16T01:43:09;1.80;;;1.60;;
7076;SDS011;3579;48.956;9.154;2023-07-16T01:45:35;1.60;;;1.50;;
7076;SDS011;3579;48.956;9.154;2023-07-16T01:50:56;1.73;;;1.63;;
7076;SDS011;3579;48.956;9.154;2023-07-16T01:53:22;1.60;;;1.50;;
7076;SDS011;3579;48.956;9.154;2023-07-16T01:55:49;1.80;;;1.70;;
7076;SDS011;3579;48.956;9.154;2023-07-16T01:58:16;1.93;;;1.70;;
7076;SDS011;3579;48.956;9.154;2023-07-16T02:00:43;1.60;;;1.50;;
7076;SDS011;3579;48.956;9.154;2023-07-16T02:03:09;2.17;;;1.97;;
7076;SDS011;3579;48.956;9.154;2023-07-16T02:05:36;1.77;;;1.60;;
7076;SDS011;3579;48.956;9.154;2023-07-16T02:08:03;1.63;;;1.50;;
7076;SDS011;3579;48.956;9.154;2023-07-16T02:10:29;1.50;;;1.40;;
7076;SDS011;3579;48.956;9.154;2023-07-16T02:12:56;1.80;;;1.70;;
7076;SDS011;3579;48.956;9.154;2023-07-16T02:15:22;1.93;;;1.73;;
7076;SDS011;3579;48.956;9.154;2023-07-16T02:17:48;1.53;;;1.43;;
7076;SDS011;3579;48.956;9.154;2023-07-16T02:20:14;1.90;;;1.70;;
7076;SDS011;3579;48.956;9.154;2023-07-16T02:22:40;1.90;;;1.70;;
7076;SDS011;3579;48.956;9.154;2023-07-16T02:25:07;1.77;;;1.67;;
7076;SDS011;3579;48.956;9.154;2023-07-16T02:27:33;1.73;;;1.63;;
7076;SDS011;3579;48.956;9.154;2023-07-16T02:29:59;1.77;;;1.67;;
7076;SDS011;3579;48.956;9.154;2023-07-16T02:32:25;1.70;;;1.60;;
7076;SDS011;3579;48.956;9.154;2023-07-16T02:34:51;1.43;;;1.33;;
7076;SDS011;3579;48.956;9.154;2023-07-16T02:37:17;1.67;;;1.57;;
7076;SDS011;3579;48.956;9.154;2023-07-16T02:39:44;1.70;;;1.60;;
7076;SDS011;3579;48.956;9.154;2023-07-16T02:42:12;1.63;;;1.50;;
7076;SDS011;3579;48.956;9.154;2023-07-16T02:44:39;1.80;;;1.50;;
7076;SDS011;3579;48.956;9.154;2023-07-16T02:47:12;1.70;;;1.60;;
7076;SDS011;3579;48.956;9.154;2023-07-16T02:49:38;1.60;;;1.50;;
7076;SDS011;3579;48.956;9.154;2023-07-16T02:52:05;1.70;;;1.60;;
7076;SDS011;3579;48.956;9.154;2023-07-16T02:54:32;1.87;;;1.60;;
7076;SDS011;3579;48.956;9.154;2023-07-16T02:56:58;1.63;;;1.53;;
7076;SDS011;3579;48.956;9.154;2023-07-16T02:59:24;1.57;;;1.47;;
7076;SDS011;3579;48.956;9.154;2023-07-16T03:01:50;1.93;;;1.70;;
7076;SDS011;3579;48.956;9.154;2023-07-16T03:04:16;1.50;;;1.40;;
7076;SDS011;3579;48.956;9.154;2023-07-16T03:06:42;1.40;;;1.30;;
7076;SDS011;3579;48.956;9.154;2023-07-16T03:09:08;1.77;;;1.67;;
7076;SDS011;3579;48.956;9.154;2023-07-16T03:11:34;1.60;;;1.50;;
7076;SDS011;3579;48.956;9.154;2023-07-16T03:14:00;1.40;;;1.30;;
7076;SDS011;3579;48.956;9.154;2023-07-16T03:16:26;1.47;;;1.37;;
7076;SDS011;3579;48.956;9.154;2023-07-16T03:18:53;1.70;;;1.60;;
7076;SDS011;3579;48.956;9.154;2023-07-16T03:21:19;1.77;;;1.67;;
7076;SDS011;3579;48.956;9.154;2023-07-16T03:23:45;1.70;;;1.50;;
7076;SDS011;3579;48.956;9.154;2023-07-16T03:26:11;1.70;;;1.60;;
7076;SDS011;3579;48.956;9.154;2023-07-16T03:28:37;1.60;;;1.50;;
7076;SDS011;3579;48.956;9.154;2023-07-16T03:31:03;1.63;;;1.50;;
7076;SDS011;3579;48.956;9.154;2023-07-16T03:33:29;1.73;;;1.57;;
7076;SDS011;3579;48.956;9.154;2023-07-16T03:35:55;1.53;;;1.43;;
7076;SDS011;3579;48.956;9.154;2023-07-16T03:38:21;1.80;;;1.60;;
7076;SDS011;3579;48.956;9.154;2023-07-16T03:40:47;1.60;;;1.50;;
7076;SDS011;3579;48.956;9.154;2023-07-16T03:43:15;1.70;;;1.60;;
7076;SDS011;3579;48.956;9.154;2023-07-16T03:45:41;1.70;;;1.40;;
7076;SDS011;3579;48.956;9.154;2023-07-16T03:48:08;1.70;;;1.60;;
7076;SDS011;3579;48.956;9.154;2023-07-16T03:50:34;1.83;;;1.57;;
7076;SDS011;3579;48.956;9.154;2023-07-16T03:53:01;1.60;;;1.50;;
7076;SDS011;3579;48.956;9.154;2023-07-16T03:55:28;1.60;;;1.40;;
7076;SDS011;3579;48.956;9.154;2023-07-16T03:57:55;1.43;;;1.33;;
7076;SDS011;3579;48.956;9.154;2023-07-16T04:00:21;1.63;;;1.43;;
7076;SDS011;3579;48.956;9.154;2023-07-16T04:02:47;1.50;;;1.40;;
7076;SDS011;3579;48.956;9.154;2023-07-16T04:05:13;1.60;;;1.40;;
7076;SDS011;3579;48.956;9.154;2023-07-16T04:07:39;1.53;;;1.43;;
7076;SDS011;3579;48.956;9.154;2023-07-16T04:10:05;1.60;;;1.50;;
7076;SDS011;3579;48.956;9.154;2023-07-16T04:12:32;1.60;;;1.50;;
7076;SDS011;3579;48.956;9.154;2023-07-16T04:14:58;1.70;;;1.60;;
7076;SDS011;3579;48.956;9.154;2023-07-16T04:17:25;2.77;;;1.30;;
7076;SDS011;3579;48.956;9.154;2023-07-16T04:19:51;1.60;;;1.50;;
7076;SDS011;3579;48.956;9.154;2023-07-16T04:22:18;1.80;;;1.70;;
7076;SDS011;3579;48.956;9.154;2023-07-16T04:24:43;1.67;;;1.57;;
7076;SDS011;3579;48.956;9.154;2023-07-16T04:27:09;1.40;;;1.30;;
7076;SDS011;3579;48.956;9.154;2023-07-16T04:29:35;1.57;;;1.47;;
7076;SDS011;3579;48.956;9.154;2023-07-16T04:32:02;1.40;;;1.30;;
7076;SDS011;3579;48.956;9.154;2023-07-16T04:34:28;1.50;;;1.40;;
7076;SDS011;3579;48.956;9.154;2023-07-16T04:36:54;1.60;;;1.50;;
7076;SDS011;3579;48.956;9.154;2023-07-16T04:39:20;1.73;;;1.63;;
7076;SDS011;3579;48.956;9.154;2023-07-16T04:41:46;1.50;;;1.40;;
7076;SDS011;3579;48.956;9.154;2023-07-16T04:44:12;1.50;;;1.40;;
7076;SDS011;3579;48.956;9.154;2023-07-16T04:46:38;1.47;;;1.37;;
7076;SDS011;3579;48.956;9.154;2023-07-16T04:49:04;2.03;;;1.47;;
7076;SDS011;3579;48.956;9.154;2023-07-16T04:51:31;1.40;;;1.30;;
7076;SDS011;3579;48.956;9.154;2023-07-16T04:53:57;1.47;;;1.37;;
7076;SDS011;3579;48.956;9.154;2023-07-16T04:56:23;1.67;;;1.57;;
7076;SDS011;3579;48.956;9.154;2023-07-16T04:58:49;1.60;;;1.50;;
7076;SDS011;3579;48.956;9.154;2023-07-16T05:01:15;1.70;;;1.60;;
7076;SDS011;3579;48.956;9.154;2023-07-16T05:03:41;1.50;;;1.40;;
7076;SDS011;3579;48.956;9.154;2023-07-16T05:06:07;1.83;;;1.50;;
7076;SDS011;3579;48.956;9.154;2023-07-16T05:08:34;1.50;;;1.40;;
7076;SDS011;3579;48.956;9.154;2023-07-16T05:11:01;1.40;;;1.30;;
7076;SDS011;3579;48.956;9.154;2023-07-16T05:13:27;1.70;;;1.60;;
7076;SDS011;3579;48.956;9.154;2023-07-16T05:15:53;1.60;;;1.50;;
7076;SDS011;3579;48.956;9.154;2023-07-16T05:18:19;1.40;;;1.30;;
7076;SDS011;3579;48.956;9.154;2023-07-16T05:20:46;1.40;;;1.30;;
7076;SDS011;3579;48.956;9.154;2023-07-16T05:23:13;1.50;;;1.40;;
7076;SDS011;3579;48.956;9.154;2023-07-16T05:25:45;1.70;;;1.50;;
7076;SDS011;3579;48.956;9.154;2023-07-16T05:28:12;1.60;;;1.50;;
7076;SDS011;3579;48.956;9.154;2023-07-16T05:30:38;1.50;;;1.40;;
7076;SDS011;3579;48.956;9.154;2023-07-16T05:33:04;1.40;;;1.30;;
7076;SDS011;3579;48.956;9.154;2023-07-16T05:35:30;1.47;;;1.37;;
7076;SDS011;3579;48.956;9.154;2023-07-16T05:37:56;1.50;;;1.40;;
7076;SDS011;3579;48.956;9.154;2023-07-16T05:40:22;1.50;;;1.40;;
7076;SDS011;3579;48.956;9.154;2023-07-16T05:42:48;1.50;;;1.40;;
7076;SDS011;3579;48.956;9.154;2023-07-16T05:45:14;1.30;;;1.20;;
7076;SDS011;3579;48.956;9.154;2023-07-16T05:47:40;1.50;;;1.40;;
7076;SDS011;3579;48.956;9.154;2023-07-16T05:50:06;1.20;;;1.10;;
7076;SDS011;3579;48.956;9.154;2023-07-16T05:52:33;1.30;;;1.20;;
7076;SDS011;3579;48.956;9.154;2023-07-16T05:55:00;1.87;;;1.50;;
7076;SDS011;3579;48.956;9.154;2023-07-16T05:57:26;1.30;;;1.20;;
7076;SDS011;3579;48.956;9.154;2023-07-16T05:59:52;1.50;;;1.40;;
7076;SDS011;3579;48.956;9.154;2023-07-16T06:02:18;1.50;;;1.40;;
7076;SDS011;3579;48.956;9.154;2023-07-16T06:04:44;1.40;;;1.30;;
7076;SDS011;3579;48.956;9.154;2023-07-16T06:07:12;1.60;;;1.50;;
7076;SDS011;3579;48.956;9.154;2023-07-16T06:09:38;1.40;;;1.30;;
7076;SDS011;3579;48.956;9.154;2023-07-16T06:12:04;1.53;;;1.43;;
7076;SDS011;3579;48.956;9.154;2023-07-16T06:14:30;1.50;;;1.40;;
7076;SDS011;3579;48.956;9.154;2023-07-16T06:16:56;1.50;;;1.40;;
7076;SDS011;3579;48.956;9.154;2023-07-16T06:19:23;1.53;;;1.43;;
7076;SDS011;3579;48.956;9.154;2023-07-16T06:21:49;1.60;;;1.50;;
7076;SDS011;3579;48.956;9.154;2023-07-16T06:24:15;1.47;;;1.33;;
7076;SDS011;3579;48.956;9.154;2023-07-16T06:26:41;1.67;;;1.57;;
7076;SDS011;3579;48.956;9.154;2023-07-16T06:29:07;1.40;;;1.30;;
7076;SDS011;3579;48.956;9.154;2023-07-16T06:31:33;1.40;;;1.30;;
7076;SDS011;3579;48.956;9.154;2023-07-16T06:33:59;1.47;;;1.37;;
7076;SDS011;3579;48.956;9.154;2023-07-16T06:36:25;1.43;;;1.33;;
7076;SDS011;3579;48.956;9.154;2023-07-16T06:38:51;1.30;;;1.20;;
7076;SDS011;3579;48.956;9.154;2023-07-16T06:41:18;1.40;;;1.30;;
7076;SDS011;3579;48.956;9.154;2023-07-16T06:43:44;1.40;;;1.30;;
7076;SDS011;3579;48.956;9.154;2023-07-16T06:46:10;1.40;;;1.30;;
7076;SDS011;3579;48.956;9.154;2023-07-16T06:48:36;1.50;;;1.40;;
7076;SDS011;3579;48.956;9.154;2023-07-16T06:51:02;1.50;;;1.40;;
7076;SDS011;3579;48.956;9.154;2023-07-16T06:53:28;1.43;;;1.33;;
7076;SDS011;3579;48.956;9.154;2023-07-16T06:55:54;1.40;;;1.30;;
7076;SDS011;3579;48.956;9.154;2023-07-16T06:58:23;1.67;;;1.53;;
7076;SDS011;3579;48.956;9.154;2023-07-16T07:00:57;1.50;;;1.40;;
7076;SDS011;3579;48.956;9.154;2023-07-16T07:03:23;1.40;;;1.30;;
7076;SDS011;3579;48.956;9.154;2023-07-16T07:05:49;1.50;;;1.40;;
7076;SDS011;3579;48.956;9.154;2023-07-16T07:08:15;1.37;;;1.27;;
7076;SDS011;3579;48.956;9.154;2023-07-16T07:10:41;1.60;;;1.50;;
7076;SDS011;3579;48.956;9.154;2023-07-16T07:13:07;1.60;;;1.50;;
7076;SDS011;3579;48.956;9.154;2023-07-16T07:15:33;1.40;;;1.30;;
7076;SDS011;3579;48.956;9.154;2023-07-16T07:17:59;1.60;;;1.50;;
7076;SDS011;3579;48.956;9.154;2023-07-16T07:20:25;1.57;;;1.47;;
7076;SDS011;3579;48.956;9.154;2023-07-16T07:22:51;1.60;;;1.50;;
7076;SDS011;3579;48.956;9.154;2023-07-16T07:25:17;1.50;;;1.40;;
7076;SDS011;3579;48.956;9.154;2023-07-16T07:27:43;1.50;;;1.40;;
7076;SDS011;3579;48.956;9.154;2023-07-16T07:30:09;1.50;;;1.40;;
7076;SDS011;3579;48.956;9.154;2023-07-16T07:32:36;1.83;;;1.33;;
7076;SDS011;3579;48.956;9.154;2023-07-16T07:35:04;1.30;;;1.20;;
7076;SDS011;3579;48.956;9.154;2023-07-16T07:37:31;1.80;;;1.43;;
7076;SDS011;3579;48.956;9.154;2023-07-16T07:39:58;1.23;;;1.13;;
7076;SDS011;3579;48.956;9.154;2023-07-16T07:42:24;1.53;;;1.43;;
7076;SDS011;3579;48.956;9.154;2023-07-16T07:44:52;1.37;;;1.27;;
7076;SDS011;3579;48.956;9.154;2023-07-16T07:47:18;1.20;;;1.10;;
7076;SDS011;3579;48.956;9.154;2023-07-16T07:49:44;1.30;;;1.20;;
7076;SDS011;3579;48.956;9.154;2023-07-16T07:52:10;1.50;;;1.37;;
7076;SDS011;3579;48.956;9.154;2023-07-16T07:54:36;1.40;;;1.30;;
7076;SDS011;3579;48.956;9.154;2023-07-16T07:57:03;1.50;;;1.40;;
7076;SDS011;3579;48.956;9.154;2023-07-16T07:59:30;1.40;;;1.30;;
7076;SDS011;3579;48.956;9.154;2023-07-16T08:01:57;1.30;;;1.20;;
7076;SDS011;3579;48.956;9.154;2023-07-16T08:04:24;1.67;;;1.50;;
7076;SDS011;3579;48.956;9.154;2023-07-16T08:06:50;1.40;;;1.30;;
7076;SDS011;3579;48.956;9.154;2023-07-16T08:09:18;1.40;;;1.30;;
7076;SDS011;3579;48.956;9.154;2023-07-16T08:11:44;1.50;;;1.40;;
7076;SDS011;3579;48.956;9.154;2023-07-16T08:14:10;1.40;;;1.30;;
7076;SDS011;3579;48.956;9.154;2023-07-16T08:16:36;1.30;;;1.20;;
7076;SDS011;3579;48.956;9.154;2023-07-16T08:19:02;1.40;;;1.30;;
7076;SDS011;3579;48.956;9.154;2023-07-16T08:21:28;1.50;;;1.40;;
7076;SDS011;3579;48.956;9.154;2023-07-16T08:23:54;1.87;;;1.50;;
7076;SDS011;3579;48.956;9.154;2023-07-16T08:26:20;1.40;;;1.30;;
7076;SDS011;3579;48.956;9.154;2023-07-16T08:28:46;1.40;;;1.30;;
7076;SDS011;3579;48.956;9.154;2023-07-16T08:31:12;1.30;;;1.20;;
7076;SDS011;3579;48.956;9.154;2023-07-16T08:33:38;1.40;;;1.30;;
7076;SDS011;3579;48.956;9.154;2023-07-16T08:36:04;1.30;;;1.20;;
7076;SDS011;3579;48.956;9.154;2023-07-16T08:38:31;1.40;;;1.30;;
7076;SDS011;3579;48.956;9.154;2023-07-16T08:40:57;1.30;;;1.20;;
7076;SDS011;3579;48.956;9.154;2023-07-16T08:43:23;1.47;;;1.37;;
7076;SDS011;3579;48.956;9.154;2023-07-16T08:45:49;1.47;;;1.37;;
7076;SDS011;3579;48.956;9.154;2023-07-16T08:48:16;1.53;;;1.43;;
7076;SDS011;3579;48.956;9.154;2023-07-16T08:50:48;1.33;;;1.23;;
7076;SDS011;3579;48.956;9.154;2023-07-16T08:53:15;1.30;;;1.20;;
7076;SDS011;3579;48.956;9.154;2023-07-16T08:55:43;1.23;;;1.13;;
7076;SDS011;3579;48.956;9.154;2023-07-16T08:58:13;1.37;;;1.27;;
7076;SDS011;3579;48.956;9.154;2023-07-16T09:00:46;1.50;;;1.40;;
7076;SDS011;3579;48.956;9.154;2023-07-16T09:03:13;1.47;;;1.37;;
7076;SDS011;3579;48.956;9.154;2023-07-16T09:05:42;1.40;;;1.30;;
7076;SDS011;3579;48.956;9.154;2023-07-16T09:08:10;1.23;;;1.13;;
7076;SDS011;3579;48.956;9.154;2023-07-16T09:10:37;1.50;;;1.40;;
7076;SDS011;3579;48.956;9.154;2023-07-16T09:13:03;1.40;;;1.30;;
7076;SDS011;3579;48.956;9.154;2023-07-16T09:15:29;1.33;;;1.23;;
7076;SDS011;3579;48.956;9.154;2023-07-16T09:17:55;1.60;;;1.30;;
7076;SDS011;3579;48.956;9.154;2023-07-16T09:20:22;1.60;;;1.37;;
7076;SDS011;3579;48.956;9.154;2023-07-16T09:22:55;1.40;;;1.30;;
7076;SDS011;3579;48.956;9.154;2023-07-16T09:25:29;1.40;;;1.30;;
7076;SDS011;3579;48.956;9.154;2023-07-16T09:28:01;1.40;;;1.30;;
7076;SDS011;3579;48.956;9.154;2023-07-16T09:30:31;1.30;;;1.20;;
7076;SDS011;3579;48.956;9.154;2023-07-16T09:33:10;1.67;;;1.50;;
7076;SDS011;3579;48.956;9.154;2023-07-16T09:35:37;1.63;;;1.23;;
7076;SDS011;3579;48.956;9.154;2023-07-16T09:38:04;1.30;;;1.20;;
7076;SDS011;3579;48.956;9.154;2023-07-16T09:40:30;1.30;;;1.20;;
7076;SDS011;3579;48.956;9.154;2023-07-16T09:42:56;1.43;;;1.33;;
7076;SDS011;3579;48.956;9.154;2023-07-16T09:45:24;1.40;;;1.30;;
7076;SDS011;3579;48.956;9.154;2023-07-16T09:47:50;1.37;;;1.27;;
7076;SDS011;3579;48.956;9.154;2023-07-16T09:50:17;1.60;;;1.50;;
7076;SDS011;3579;48.956;9.154;2023-07-16T09:52:43;1.70;;;1.30;;
7076;SDS011;3579;48.956;9.154;2023-07-16T09:55:10;1.47;;;1.37;;
7076;SDS011;3579;48.956;9.154;2023-07-16T09:57:39;1.43;;;1.33;;
7076;SDS011;3579;48.956;9.154;2023-07-16T10:00:10;1.50;;;1.37;;
7076;SDS011;3579;48.956;9.154;2023-07-16T10:02:39;1.50;;;1.40;;
7076;SDS011;3579;48.956;9.154;2023-07-16T10:07:38;1.27;;;1.17;;
7076;SDS011;3579;48.956;9.154;2023-07-16T10:10:09;1.43;;;1.33;;
7076;SDS011;3579;48.956;9.154;2023-07-16T10:12:37;1.30;;;1.20;;
7076;SDS011;3579;48.956;9.154;2023-07-16T10:15:04;1.30;;;1.20;;
7076;SDS011;3579;48.956;9.154;2023-07-16T10:17:31;1.50;;;1.40;;
7076;SDS011;3579;48.956;9.154;2023-07-16T10:19:59;1.40;;;1.30;;
7076;SDS011;3579;48.956;9.154;2023-07-16T10:22:54;1.57;;;1.40;;
7076;SDS011;3579;48.956;9.154;2023-07-16T10:27:46;1.37;;;1.20;;
7076;SDS011;3579;48.956;9.154;2023-07-16T10:30:13;1.40;;;1.27;;
7076;SDS011;3579;48.956;9.154;2023-07-16T10:32:39;1.50;;;1.40;;
7076;SDS011;3579;48.956;9.154;2023-07-16T10:35:06;1.30;;;1.20;;
7076;SDS011;3579;48.956;9.154;2023-07-16T10:37:36;1.30;;;1.20;;
7076;SDS011;3579;48.956;9.154;2023-07-16T10:40:03;1.40;;;1.30;;
7076;SDS011;3579;48.956;9.154;2023-07-16T10:42:30;1.30;;;1.20;;
7076;SDS011;3579;48.956;9.154;2023-07-16T10:45:01;1.63;;;1.40;;
7076;SDS011;3579;48.956;9.154;2023-07-16T10:47:32;1.60;;;1.30;;
7076;SDS011;3579;48.956;9.154;2023-07-16T10:49:59;1.53;;;1.40;;
7076;SDS011;3579;48.956;9.154;2023-07-16T10:52:28;1.20;;;1.10;;
7076;SDS011;3579;48.956;9.154;2023-07-16T10:54:54;1.50;;;1.20;;
7076;SDS011;3579;48.956;9.154;2023-07-16T10:57:21;1.40;;;1.30;;
7076;SDS011;3579;48.956;9.154;2023-07-16T10:59:48;1.40;;;1.30;;
7076;SDS011;3579;48.956;9.154;2023-07-16T11:02:15;1.40;;;1.30;;
7076;SDS011;3579;48.956;9.154;2023-07-16T11:04:42;1.27;;;1.17;;
7076;SDS011;3579;48.956;9.154;2023-07-16T11:07:10;1.60;;;1.30;;
7076;SDS011;3579;48.956;9.154;2023-07-16T11:09:41;1.40;;;1.30;;
7076;SDS011;3579;48.956;9.154;2023-07-16T11:12:11;1.30;;;1.20;;
7076;SDS011;3579;48.956;9.154;2023-07-16T11:14:41;1.33;;;1.23;;
7076;SDS011;3579;48.956;9.154;2023-07-16T11:17:09;1.30;;;1.20;;
7076;SDS011;3579;48.956;9.154;2023-07-16T11:19:36;1.30;;;1.20;;
7076;SDS011;3579;48.956;9.154;2023-07-16T11:22:03;1.20;;;1.10;;
7076;SDS011;3579;48.956;9.154;2023-07-16T11:27:14;1.40;;;1.30;;
7076;SDS011;3579;48.956;9.154;2023-07-16T11:29:44;1.27;;;1.17;;
7076;SDS011;3579;48.956;9.154;2023-07-16T11:32:31;1.50;;;1.40;;
7076;SDS011;3579;48.956;9.154;2023-07-16T11:35:00;1.60;;;1.40;;
7076;SDS011;3579;48.956;9.154;2023-07-16T11:37:32;1.40;;;1.13;;
7076;SDS011;3579;48.956;9.154;2023-07-16T11:40:05;1.20;;;1.10;;
7076;SDS011;3579;48.956;9.154;2023-07-16T11:42:33;1.33;;;1.23;;
7076;SDS011;3579;48.956;9.154;2023-07-16T11:45:01;1.30;;;1.20;;
7076;SDS011;3579;48.956;9.154;2023-07-16T11:47:28;1.40;;;1.30;;
7076;SDS011;3579;48.956;9.154;2023-07-16T11:49:55;1.50;;;1.20;;
7076;SDS011;3579;48.956;9.154;2023-07-16T11:52:23;1.60;;;1.50;;
7076;SDS011;3579;48.956;9.154;2023-07-16T11:54:54;1.40;;;1.30;;
7076;SDS011;3579;48.956;9.154;2023-07-16T11:57:21;1.20;;;1.10;;
7076;SDS011;3579;48.956;9.154;2023-07-16T11:59:48;1.40;;;1.20;;
7076;SDS011;3579;48.956;9.154;2023-07-16T12:02:14;1.30;;;1.20;;
7076;SDS011;3579;48.956;9.154;2023-07-16T12:04:40;1.60;;;1.50;;
7076;SDS011;3579;48.956;9.154;2023-07-16T12:07:06;1.40;;;1.30;;
7076;SDS011;3579;48.956;9.154;2023-07-16T12:09:33;1.40;;;1.30;;
7076;SDS011;3579;48.956;9.154;2023-07-16T12:11:59;1.40;;;1.20;;
7076;SDS011;3579;48.956;9.154;2023-07-16T12:14:26;1.30;;;1.20;;
7076;SDS011;3579;48.956;9.154;2023-07-16T12:16:52;1.50;;;1.40;;
7076;SDS011;3579;48.956;9.154;2023-07-16T12:19:18;1.87;;;1.40;;
7076;SDS011;3579;48.956;9.154;2023-07-16T12:21:44;1.40;;;1.30;;
7076;SDS011;3579;48.956;9.154;2023-07-16T12:24:11;1.40;;;1.30;;
7076;SDS011;3579;48.956;9.154;2023-07-16T12:26:37;1.30;;;1.20;;
7076;SDS011;3579;48.956;9.154;2023-07-16T12:29:03;1.30;;;1.20;;
7076;SDS011;3579;48.956;9.154;2023-07-16T12:31:32;1.40;;;1.30;;
7076;SDS011;3579;48.956;9.154;2023-07-16T12:34:01;1.30;;;1.20;;
7076;SDS011;3579;48.956;9.154;2023-07-16T12:36:27;1.40;;;1.30;;
7076;SDS011;3579;48.956;9.154;2023-07-16T12:38:53;1.50;;;1.40;;
7076;SDS011;3579;48.956;9.154;2023-07-16T12:41:19;1.40;;;1.30;;
7076;SDS011;3579;48.956;9.154;2023-07-16T12:43:46;1.47;;;1.37;;
7076;SDS011;3579;48.956;9.154;2023-07-16T12:46:12;1.30;;;1.20;;
7076;SDS011;3579;48.956;9.154;2023-07-16T12:48:39;1.40;;;1.30;;
7076;SDS011;3579;48.956;9.154;2023-07-16T12:51:05;1.30;;;1.20;;
7076;SDS011;3579;48.956;9.154;2023-07-16T12:53:31;1.40;;;1.30;;
7076;SDS011;3579;48.956;9.154;2023-07-16T12:55:58;1.30;;;1.20;;
7076;SDS011;3579;48.956;9.154;2023-07-16T12:58:24;1.20;;;1.10;;
7076;SDS011;3579;48.956;9.154;2023-07-16T13:00:51;1.47;;;1.30;;
7076;SDS011;3579;48.956;9.154;2023-07-16T13:03:17;1.30;;;1.20;;
7076;SDS011;3579;48.956;9.154;2023-07-16T13:05:43;1.30;;;1.20;;
7076;SDS011;3579;48.956;9.154;2023-07-16T13:08:10;1.30;;;1.20;;
7076;SDS011;3579;48.956;9.154;2023-07-16T13:10:36;1.40;;;1.30;;
7076;SDS011;3579;48.956;9.154;2023-07-16T13:13:02;1.30;;;1.20;;
7076;SDS011;3579;48.956;9.154;2023-07-16T13:15:29;1.80;;;1.20;;
7076;SDS011;3579;48.956;9.154;2023-07-16T13:17:55;1.47;;;1.33;;
7076;SDS011;3579;48.956;9.154;2023-07-16T13:20:21;1.20;;;1.10;;
7076;SDS011;3579;48.956;9.154;2023-07-16T13:22:49;1.30;;;1.20;;
7076;SDS011;3579;48.956;9.154;2023-07-16T13:25:15;1.30;;;1.20;;
7076;SDS011;3579;48.956;9.154;2023-07-16T13:27:41;1.30;;;1.20;;
7076;SDS011;3579;48.956;9.154;2023-07-16T13:30:07;1.37;;;1.23;;
7076;SDS011;3579;48.956;9.154;2023-07-16T13:32:33;1.50;;;1.30;;
7076;SDS011;3579;48.956;9.154;2023-07-16T13:35:00;1.47;;;1.30;;
7076;SDS011;3579;48.956;9.154;2023-07-16T13:37:26;1.30;;;1.20;;
7076;SDS011;3579;48.956;9.154;2023-07-16T13:39:52;1.40;;;1.20;;
7076;SDS011;3579;48.956;9.154;2023-07-16T13:42:19;1.37;;;1.27;;
7076;SDS011;3579;48.956;9.154;2023-07-16T13:44:45;1.40;;;1.30;;
7076;SDS011;3579;48.956;9.154;2023-07-16T13:47:11;1.20;;;1.10;;
7076;SDS011;3579;48.956;9.154;2023-07-16T13:49:37;1.40;;;1.30;;
7076;SDS011;3579;48.956;9.154;2023-07-16T13:52:04;1.50;;;1.40;;
7076;SDS011;3579;48.956;9.154;2023-07-16T13:54:30;1.20;;;1.10;;
7076;SDS011;3579;48.956;9.154;2023-07-16T13:56:56;1.60;;;1.30;;
7076;SDS011;3579;48.956;9.154;2023-07-16T13:59:22;1.57;;;1.30;;
7076;SDS011;3579;48.956;9.154;2023-07-16T14:01:58;1.50;;;1.40;;
7076;SDS011;3579;48.956;9.154;2023-07-16T14:04:27;1.50;;;1.30;;
7076;SDS011;3579;48.956;9.154;2023-07-16T14:06:54;1.73;;;1.40;;
7076;SDS011;3579;48.956;9.154;2023-07-16T14:09:20;1.30;;;1.20;;
7076;SDS011;3579;48.956;9.154;2023-07-16T14:11:46;1.40;;;1.30;;
7076;SDS011;3579;48.956;9.154;2023-07-16T14:14:16;1.40;;;1.20;;
7076;SDS011;3579;48.956;9.154;2023-07-16T14:16:43;1.30;;;1.20;;
7076;SDS011;3579;48.956;9.154;2023-07-16T14:19:09;1.30;;;1.20;;
7076;SDS011;3579;48.956;9.154;2023-07-16T14:21:37;1.57;;;1.30;;
7076;SDS011;3579;48.956;9.154;2023-07-16T14:24:05;1.30;;;1.20;;
7076;SDS011;3579;48.956;9.154;2023-07-16T14:26:31;1.37;;;1.27;;
7076;SDS011;3579;48.956;9.154;2023-07-16T14:28:57;1.40;;;1.30;;
7076;SDS011;3579;48.956;9.154;2023-07-16T14:31:23;1.40;;;1.20;;
7076;SDS011;3579;48.956;9.154;2023-07-16T14:33:50;1.20;;;1.10;;
7076;SDS011;3579;48.956;9.154;2023-07-16T14:36:16;2.03;;;1.40;;
7076;SDS011;3579;48.956;9.154;2023-07-16T14:38:42;1.20;;;1.10;;
7076;SDS011;3579;48.956;9.154;2023-07-16T14:41:08;1.30;;;1.20;;
7076;SDS011;3579;48.956;9.154;2023-07-16T14:43:34;1.30;;;1.20;;
7076;SDS011;3579;48.956;9.154;2023-07-16T14:46:00;1.40;;;1.30;;
7076;SDS011;3579;48.956;9.154;2023-07-16T14:48:26;1.37;;;1.27;;
7076;SDS011;3579;48.956;9.154;2023-07-16T14:50:52;1.50;;;1.40;;
7076;SDS011;3579;48.956;9.154;2023-07-16T14:53:19;1.30;;;1.20;;
7076;SDS011;3579;48.956;9.154;2023-07-16T14:55:49;1.30;;;1.20;;
7076;SDS011;3579;48.956;9.154;2023-07-16T14:58:19;1.37;;;1.27;;
7076;SDS011;3579;48.956;9.154;2023-07-16T15:00:48;1.30;;;1.20;;
7076;SDS011;3579;48.956;9.154;2023-07-16T15:03:14;1.50;;;1.33;;
7076;SDS011;3579;48.956;9.154;2023-07-16T15:05:40;1.30;;;1.20;;
7076;SDS011;3579;48.956;9.154;2023-07-16T15:08:06;1.10;;;1.00;;
7076;SDS011;3579;48.956;9.154;2023-07-16T15:10:32;1.30;;;1.20;;
7076;SDS011;3579;48.956;9.154;2023-07-16T15:12:58;1.20;;;1.10;;
7076;SDS011;3579;48.956;9.154;2023-07-16T15:15:24;1.20;;;1.10;;
7076;SDS011;3579;48.956;9.154;2023-07-16T15:17:51;1.20;;;1.10;;
7076;SDS011;3579;48.956;9.154;2023-07-16T15:20:17;1.20;;;1.10;;
7076;SDS011;3579;48.956;9.154;2023-07-16T15:22:43;1.60;;;1.30;;
7076;SDS011;3579;48.956;9.154;2023-07-16T15:25:09;1.30;;;1.20;;
7076;SDS011;3579;48.956;9.154;2023-07-16T15:27:36;1.03;;;0.93;;
7076;SDS011;3579;48.956;9.154;2023-07-16T15:30:02;1.30;;;1.20;;
7076;SDS011;3579;48.956;9.154;2023-07-16T15:32:28;1.33;;;1.23;;